Time,TemperatureF,DewpointF,PressureIn,WindDirection,WindDirectionDegrees,WindSpeedMPH,WindSpeedGustMPH,Humidity,HourlyPrecipIn,Conditions,Clouds,dailyrainin,SolarRadiationWatts/m^2,SoftwareType,DateUTC
2013-04-15 00:02:00,36.0,29.0,-100.00,WNW,285,2.0,6.0,75,0.00,,,0.04,1.000000,,2013-04-15 07:02:00,
2013-04-15 00:43:00,34.0,25.0,-100.00,SSW,197,2.0,5.0,69,0.00,,,0.04,1.000000,,2013-04-15 07:43:00,
2013-04-15 00:53:00,34.0,25.0,-100.00,SSW,197,2.0,5.0,69,0.00,,,0.04,1.000000,,2013-04-15 07:53:00,
2013-04-15 01:02:00,34.0,25.0,-100.00,SSW,197,2.0,5.0,69,0.00,,,0.04,1.000000,,2013-04-15 08:02:00,
2013-04-15 01:43:00,34.0,29.0,-100.00,SW,216,3.0,4.0,83,0.00,,,0.04,1.000000,,2013-04-15 08:43:00,
2013-04-15 01:52:00,34.0,29.0,-100.00,SW,216,3.0,4.0,83,0.00,,,0.04,1.000000,,2013-04-15 08:52:00,
2013-04-15 02:02:00,34.0,29.0,-100.00,SW,216,3.0,4.0,83,0.00,,,0.04,1.000000,,2013-04-15 09:02:00,
2013-04-15 02:33:00,32.0,28.0,-100.00,SW,229,2.0,5.0,86,0.00,,,0.04,1.000000,,2013-04-15 09:33:00,
2013-04-15 02:43:00,32.0,28.0,-100.00,SW,229,2.0,5.0,86,0.00,,,0.04,1.000000,,2013-04-15 09:43:00,
2013-04-15 02:53:00,32.0,28.0,-100.00,SW,229,2.0,5.0,86,0.00,,,0.04,1.000000,,2013-04-15 09:53:00,
2013-04-15 03:02:00,32.0,28.0,-100.00,SW,229,2.0,5.0,86,0.00,,,0.04,1.000000,,2013-04-15 10:02:00,
2013-04-15 03:33:00,30.0,28.0,-100.00,SSW,207,1.0,3.0,91,0.00,,,-99.99,1.000000,,2013-04-15 10:33:00,
2013-04-15 03:42:00,30.0,28.0,-100.00,SSW,207,1.0,3.0,91,0.00,,,-99.99,1.000000,,2013-04-15 10:42:00,
2013-04-15 03:52:00,30.0,28.0,-100.00,SSW,207,1.0,3.0,91,0.00,,,-99.99,1.000000,,2013-04-15 10:52:00,
2013-04-15 04:02:00,30.0,28.0,-100.00,SSW,207,1.0,3.0,91,0.00,,,-99.99,1.000000,,2013-04-15 11:02:00,
2013-04-15 04:33:00,34.0,30.0,-100.00,ESE,123,2.0,6.0,85,0.00,,,0.04,1.000000,,2013-04-15 11:33:00,
2013-04-15 04:43:00,34.0,30.0,-100.00,ESE,123,2.0,6.0,85,0.00,,,0.04,1.000000,,2013-04-15 11:43:00,
2013-04-15 04:53:00,34.0,30.0,-100.00,ESE,123,2.0,6.0,85,0.00,,,0.04,1.000000,,2013-04-15 11:53:00,
2013-04-15 05:02:00,34.0,30.0,-100.00,ESE,123,2.0,6.0,85,0.00,,,0.04,1.000000,,2013-04-15 12:02:00,
2013-04-15 05:34:00,33.0,30.0,-100.00,SW,220,3.0,5.0,88,0.00,,,0.04,1.000000,,2013-04-15 12:34:00,
2013-04-15 05:43:00,33.0,30.0,-100.00,SW,220,3.0,5.0,88,0.00,,,0.04,1.000000,,2013-04-15 12:43:00,
2013-04-15 05:53:00,33.0,30.0,-100.00,SW,220,3.0,5.0,88,0.00,,,0.04,1.000000,,2013-04-15 12:53:00,
2013-04-15 06:03:00,33.0,30.0,-100.00,SW,220,3.0,5.0,88,0.00,,,0.04,1.000000,,2013-04-15 13:03:00,
2013-04-15 06:34:00,33.0,30.0,-100.00,NNW,344,2.0,4.0,90,0.00,,,0.04,1.000000,,2013-04-15 13:34:00,
2013-04-15 06:43:00,33.0,30.0,-100.00,NNW,344,2.0,4.0,90,0.00,,,0.04,1.000000,,2013-04-15 13:43:00,
2013-04-15 06:53:00,33.0,30.0,-100.00,NNW,344,2.0,4.0,90,0.00,,,0.04,1.000000,,2013-04-15 13:53:00,
2013-04-15 07:03:00,33.0,30.0,-100.00,NNW,344,2.0,4.0,90,0.00,,,0.04,1.000000,,2013-04-15 14:03:00,
2013-04-15 07:34:00,34.0,31.0,-100.00,SW,214,2.0,4.0,90,0.00,,,0.04,12.000000,,2013-04-15 14:34:00,
2013-04-15 07:44:00,34.0,31.0,-100.00,SW,214,2.0,4.0,90,0.00,,,0.04,12.000000,,2013-04-15 14:44:00,
2013-04-15 07:54:00,34.0,31.0,-100.00,SW,214,2.0,4.0,90,0.00,,,0.04,12.000000,,2013-04-15 14:54:00,
2013-04-15 08:03:00,34.0,31.0,-100.00,SW,214,2.0,4.0,90,0.00,,,0.04,12.000000,,2013-04-15 15:03:00,
2013-04-15 08:37:00,37.0,33.0,-100.00,NE,40,3.0,8.0,85,0.00,,,0.04,85.000000,,2013-04-15 15:37:00,
2013-04-15 08:44:00,37.0,33.0,-100.00,NE,40,3.0,8.0,85,0.00,,,0.04,85.000000,,2013-04-15 15:44:00,
2013-04-15 08:54:00,37.0,33.0,-100.00,NE,40,3.0,8.0,85,0.00,,,0.04,85.000000,,2013-04-15 15:54:00,
2013-04-15 09:03:00,37.0,33.0,-100.00,NE,40,3.0,8.0,85,0.00,,,0.04,85.000000,,2013-04-15 16:03:00,
2013-04-15 09:34:00,42.0,35.0,-100.00,ENE,61,3.0,6.0,75,0.00,,,0.04,265.000000,,2013-04-15 16:34:00,
2013-04-15 09:44:00,42.0,35.0,-100.00,ENE,61,3.0,6.0,75,0.00,,,0.04,265.000000,,2013-04-15 16:44:00,
2013-04-15 09:53:00,42.0,35.0,-100.00,ENE,61,3.0,6.0,75,0.00,,,0.04,265.000000,,2013-04-15 16:53:00,
2013-04-15 10:03:00,42.0,35.0,-100.00,ENE,61,3.0,6.0,75,0.00,,,0.04,265.000000,,2013-04-15 17:03:00,
2013-04-15 10:33:00,43.0,32.0,-100.00,NE,55,4.0,7.0,64,0.00,,,0.04,346.000000,,2013-04-15 17:33:00,
2013-04-15 10:43:00,43.0,32.0,-100.00,NE,55,4.0,7.0,64,0.00,,,0.04,346.000000,,2013-04-15 17:43:00,
2013-04-15 10:52:00,43.0,32.0,-100.00,NE,55,4.0,7.0,64,0.00,,,0.04,346.000000,,2013-04-15 17:52:00,
2013-04-15 11:02:00,43.0,32.0,-100.00,NE,55,4.0,7.0,64,0.00,,,0.04,346.000000,,2013-04-15 18:02:00,
2013-04-15 11:33:00,48.0,33.0,-100.00,East,86,5.0,9.0,55,0.00,,,0.04,615.000000,,2013-04-15 18:33:00,
2013-04-15 11:42:00,48.0,33.0,-100.00,East,86,5.0,9.0,55,0.00,,,0.04,615.000000,,2013-04-15 18:42:00,
2013-04-15 11:52:00,48.0,33.0,-100.00,East,86,5.0,9.0,55,0.00,,,0.04,615.000000,,2013-04-15 18:52:00,
2013-04-15 12:01:00,48.0,33.0,-100.00,East,86,5.0,9.0,55,0.00,,,0.04,615.000000,,2013-04-15 19:01:00,
2013-04-15 12:39:00,39.0,32.0,-100.00,WNW,299,4.0,17.0,75,0.02,,,0.06,380.000000,,2013-04-15 19:39:00,
2013-04-15 12:57:00,39.0,32.0,-100.00,WNW,299,4.0,17.0,75,0.02,,,0.06,380.000000,,2013-04-15 19:57:00,
2013-04-15 13:00:00,39.0,32.0,-100.00,WNW,299,4.0,17.0,75,0.02,,,0.06,380.000000,,2013-04-15 20:00:00,
2013-04-15 13:32:00,47.0,37.0,-100.00,WNW,283,3.0,9.0,69,0.00,,,0.04,344.000000,,2013-04-15 20:32:00,
2013-04-15 13:42:00,47.0,37.0,-100.00,WNW,283,3.0,9.0,69,0.00,,,0.04,344.000000,,2013-04-15 20:42:00,
2013-04-15 13:52:00,47.0,37.0,-100.00,WNW,283,3.0,9.0,69,0.00,,,0.04,344.000000,,2013-04-15 20:52:00,
2013-04-15 14:02:00,47.0,37.0,-100.00,WNW,283,3.0,9.0,69,0.00,,,0.04,344.000000,,2013-04-15 21:02:00,
2013-04-15 14:33:00,42.0,33.0,-100.00,NNW,335,10.0,21.0,71,0.00,,,0.04,641.000000,,2013-04-15 21:33:00,
2013-04-15 14:43:00,42.0,33.0,-100.00,NNW,335,10.0,21.0,71,0.00,,,0.04,641.000000,,2013-04-15 21:43:00,
2013-04-15 14:53:00,42.0,33.0,-100.00,NNW,335,10.0,21.0,71,0.00,,,0.04,641.000000,,2013-04-15 21:53:00,
2013-04-15 15:02:00,42.0,33.0,-100.00,NNW,335,10.0,21.0,71,0.00,,,0.04,641.000000,,2013-04-15 22:02:00,
2013-04-15 15:33:00,47.0,36.0,-100.00,NNW,343,12.0,18.0,65,0.00,,,0.04,435.000000,,2013-04-15 22:33:00,
2013-04-15 15:42:00,47.0,36.0,-100.00,NNW,343,12.0,18.0,65,0.00,,,0.04,435.000000,,2013-04-15 22:42:00,
2013-04-15 15:52:00,47.0,36.0,-100.00,NNW,343,12.0,18.0,65,0.00,,,0.04,435.000000,,2013-04-15 22:52:00,
2013-04-15 16:02:00,47.0,36.0,-100.00,NNW,343,12.0,18.0,65,0.00,,,0.04,435.000000,,2013-04-15 23:02:00,
2013-04-15 16:32:00,49.0,33.0,-100.00,North,1,14.0,19.0,53,0.00,,,0.04,757.000000,,2013-04-15 23:32:00,
2013-04-15 16:42:00,49.0,33.0,-100.00,North,1,14.0,19.0,53,0.00,,,0.04,757.000000,,2013-04-15 23:42:00,
2013-04-15 16:52:00,49.0,33.0,-100.00,North,1,14.0,19.0,53,0.00,,,0.04,757.000000,,2013-04-15 23:52:00,
2013-04-15 17:02:00,49.0,33.0,-100.00,North,1,14.0,19.0,53,0.00,,,0.04,757.000000,,2013-04-16 00:02:00,
2013-04-15 18:32:00,47.0,33.0,-100.00,NNW,338,9.0,14.0,59,-99.99,,,0.02,239.000000,,2013-04-16 01:32:00,
2013-04-15 18:42:00,47.0,33.0,-100.00,NNW,338,9.0,14.0,59,-99.99,,,0.02,239.000000,,2013-04-16 01:42:00,
2013-04-15 18:52:00,47.0,33.0,-100.00,NNW,338,9.0,14.0,59,-99.99,,,0.02,239.000000,,2013-04-16 01:52:00,
2013-04-15 19:02:00,47.0,33.0,-100.00,NNW,338,9.0,14.0,59,-99.99,,,0.02,239.000000,,2013-04-16 02:02:00,
2013-04-15 19:32:00,43.0,31.0,-100.00,North,11,4.0,19.0,63,0.00,,,0.02,74.000000,,2013-04-16 02:32:00,
2013-04-15 19:42:00,43.0,31.0,-100.00,North,11,4.0,19.0,63,0.00,,,0.02,74.000000,,2013-04-16 02:42:00,
2013-04-15 19:52:00,43.0,31.0,-100.00,North,11,4.0,19.0,63,0.00,,,0.02,74.000000,,2013-04-16 02:52:00,
2013-04-15 20:02:00,43.0,31.0,-100.00,North,11,4.0,19.0,63,0.00,,,0.02,74.000000,,2013-04-16 03:02:00,
2013-04-15 20:33:00,38.0,30.0,-100.00,West,263,3.0,9.0,74,0.00,,,0.02,9.000000,,2013-04-16 03:33:00,
2013-04-15 20:43:00,38.0,30.0,-100.00,West,263,3.0,9.0,74,0.00,,,0.02,9.000000,,2013-04-16 03:43:00,
2013-04-15 20:52:00,38.0,30.0,-100.00,West,263,3.0,9.0,74,0.00,,,0.02,9.000000,,2013-04-16 03:52:00,
2013-04-15 21:02:00,38.0,30.0,-100.00,West,263,3.0,9.0,74,0.00,,,0.02,9.000000,,2013-04-16 04:02:00,
2013-04-15 21:33:00,37.0,31.0,-100.00,NW,312,5.0,9.0,78,0.00,,,0.02,1.000000,,2013-04-16 04:33:00,
2013-04-15 21:42:00,37.0,31.0,-100.00,NW,312,5.0,9.0,78,0.00,,,0.02,1.000000,,2013-04-16 04:42:00,
2013-04-15 21:53:00,37.0,31.0,-100.00,NW,312,5.0,9.0,78,0.00,,,0.02,1.000000,,2013-04-16 04:53:00,
2013-04-15 22:02:00,37.0,31.0,-100.00,NW,312,5.0,9.0,78,0.00,,,0.02,1.000000,,2013-04-16 05:02:00,
2013-04-15 22:32:00,35.0,30.0,-100.00,WNW,303,1.0,9.0,81,0.00,,,0.02,1.000000,,2013-04-16 05:32:00,
2013-04-15 22:42:00,35.0,30.0,-100.00,WNW,303,1.0,9.0,81,0.00,,,0.02,1.000000,,2013-04-16 05:42:00,
2013-04-15 22:52:00,35.0,30.0,-100.00,WNW,303,1.0,9.0,81,0.00,,,0.02,1.000000,,2013-04-16 05:52:00,
2013-04-15 23:02:00,35.0,30.0,-100.00,WNW,303,1.0,9.0,81,0.00,,,0.02,1.000000,,2013-04-16 06:02:00,
2013-04-15 23:32:00,35.0,32.0,-100.00,West,275,3.0,5.0,87,0.00,,,0.02,1.000000,,2013-04-16 06:32:00,
2013-04-15 23:42:00,35.0,32.0,-100.00,West,275,3.0,5.0,87,0.00,,,0.02,1.000000,,2013-04-16 06:42:00,
2013-04-15 23:52:00,35.0,32.0,-100.00,West,275,3.0,5.0,87,0.00,,,0.02,1.000000,,2013-04-16 06:52:00,